sensor_id;sensor_type;location;lat;lon;timestamp;temperature;humidity
21646;DHT22;10984;45.712;4.800;2023-10-09T00:00:13;15.00;1.00
21646;DHT22;10984;45.712;4.800;2023-10-09T00:02:58;14.90;1.00
21646;DHT22;10984;45.712;4.800;2023-10-09T00:05:42;14.90;1.00
21646;DHT22;10984;45.712;4.800;2023-10-09T00:08:26;14.90;1.00
21646;DHT22;10984;45.712;4.800;2023-10-09T00:11:02;14.90;1.00
21646;DHT22;10984;45.712;4.800;2023-10-09T00:13:47;14.90;1.00
21646;DHT22;10984;45.712;4.800;2023-10-09T00:16:32;14.90;1.00
21646;DHT22;10984;45.712;4.800;2023-10-09T00:19:16;14.80;1.00
21646;DHT22;10984;45.712;4.800;2023-10-09T00:22:00;14.80;1.00
21646;DHT22;10984;45.712;4.800;2023-10-09T00:24:44;14.80;1.00
21646;DHT22;10984;45.712;4.800;2023-10-09T00:27:11;14.70;1.00
21646;DHT22;10984;45.712;4.800;2023-10-09T00:29:39;14.70;1.00
21646;DHT22;10984;45.712;4.800;2023-10-09T00:34:58;14.70;1.00
21646;DHT22;10984;45.712;4.800;2023-10-09T00:37:44;14.70;1.00
21646;DHT22;10984;45.712;4.800;2023-10-09T00:40:11;14.70;1.00
21646;DHT22;10984;45.712;4.800;2023-10-09T00:42:55;14.70;1.00
21646;DHT22;10984;45.712;4.800;2023-10-09T00:45:21;14.60;1.00
21646;DHT22;10984;45.712;4.800;2023-10-09T00:48:07;14.60;1.00
21646;DHT22;10984;45.712;4.800;2023-10-09T00:50:34;14.60;1.00
21646;DHT22;10984;45.712;4.800;2023-10-09T00:53:20;14.60;1.00
21646;DHT22;10984;45.712;4.800;2023-10-09T00:55:57;14.50;1.00
21646;DHT22;10984;45.712;4.800;2023-10-09T00:58:28;14.50;1.00
21646;DHT22;10984;45.712;4.800;2023-10-09T01:00:56;14.50;1.00
21646;DHT22;10984;45.712;4.800;2023-10-09T01:03:25;14.50;1.00
21646;DHT22;10984;45.712;4.800;2023-10-09T01:05:55;14.40;1.00
21646;DHT22;10984;45.712;4.800;2023-10-09T01:08:40;14.40;1.00
21646;DHT22;10984;45.712;4.800;2023-10-09T01:13:55;14.40;1.00
21646;DHT22;10984;45.712;4.800;2023-10-09T01:16:37;14.40;1.00
21646;DHT22;10984;45.712;4.800;2023-10-09T01:19:03;14.30;1.00
21646;DHT22;10984;45.712;4.800;2023-10-09T01:21:38;14.30;1.00
21646;DHT22;10984;45.712;4.800;2023-10-09T01:24:05;14.30;1.00
21646;DHT22;10984;45.712;4.800;2023-10-09T01:26:49;14.30;1.00
21646;DHT22;10984;45.712;4.800;2023-10-09T01:29:16;14.30;1.00
21646;DHT22;10984;45.712;4.800;2023-10-09T01:34:33;14.20;1.00
21646;DHT22;10984;45.712;4.800;2023-10-09T01:37:19;14.20;1.00
21646;DHT22;10984;45.712;4.800;2023-10-09T01:40:06;14.10;1.00
21646;DHT22;10984;45.712;4.800;2023-10-09T01:42:50;14.10;1.00
21646;DHT22;10984;45.712;4.800;2023-10-09T01:45:16;14.10;1.00
21646;DHT22;10984;45.712;4.800;2023-10-09T01:47:55;14.00;1.00
21646;DHT22;10984;45.712;4.800;2023-10-09T01:50:22;14.00;1.00
21646;DHT22;10984;45.712;4.800;2023-10-09T01:52:50;14.10;1.00
21646;DHT22;10984;45.712;4.800;2023-10-09T01:55:34;14.00;1.00
21646;DHT22;10984;45.712;4.800;2023-10-09T01:58:18;14.00;1.00
21646;DHT22;10984;45.712;4.800;2023-10-09T02:01:02;14.00;1.00
21646;DHT22;10984;45.712;4.800;2023-10-09T02:03:32;14.00;1.00
21646;DHT22;10984;45.712;4.800;2023-10-09T02:06:02;14.00;1.00
21646;DHT22;10984;45.712;4.800;2023-10-09T02:08:30;14.00;1.00
21646;DHT22;10984;45.712;4.800;2023-10-09T02:10:59;13.90;1.00
21646;DHT22;10984;45.712;4.800;2023-10-09T02:13:27;13.90;1.00
21646;DHT22;10984;45.712;4.800;2023-10-09T02:16:12;13.90;1.00
21646;DHT22;10984;45.712;4.800;2023-10-09T02:18:56;13.90;1.00
21646;DHT22;10984;45.712;4.800;2023-10-09T02:21:22;13.90;1.00
21646;DHT22;10984;45.712;4.800;2023-10-09T02:24:06;13.90;1.00
21646;DHT22;10984;45.712;4.800;2023-10-09T02:26:50;13.90;1.00
21646;DHT22;10984;45.712;4.800;2023-10-09T02:29:16;13.90;1.00
21646;DHT22;10984;45.712;4.800;2023-10-09T02:31:42;13.90;1.00
21646;DHT22;10984;45.712;4.800;2023-10-09T02:34:26;13.90;1.00
21646;DHT22;10984;45.712;4.800;2023-10-09T02:36:53;13.90;1.00
21646;DHT22;10984;45.712;4.800;2023-10-09T02:39:37;13.80;1.00
21646;DHT22;10984;45.712;4.800;2023-10-09T02:42:09;13.80;1.00
21646;DHT22;10984;45.712;4.800;2023-10-09T02:44:53;13.70;1.00
21646;DHT22;10984;45.712;4.800;2023-10-09T02:47:21;13.70;1.00
21646;DHT22;10984;45.712;4.800;2023-10-09T02:49:51;13.70;1.00
21646;DHT22;10984;45.712;4.800;2023-10-09T02:52:17;13.70;1.00
21646;DHT22;10984;45.712;4.800;2023-10-09T02:55:01;13.60;1.00
21646;DHT22;10984;45.712;4.800;2023-10-09T02:57:45;13.60;1.00
21646;DHT22;10984;45.712;4.800;2023-10-09T03:00:11;13.60;1.00
21646;DHT22;10984;45.712;4.800;2023-10-09T03:02:44;13.60;1.00
21646;DHT22;10984;45.712;4.800;2023-10-09T03:05:11;13.60;1.00
21646;DHT22;10984;45.712;4.800;2023-10-09T03:07:38;13.50;1.00
21646;DHT22;10984;45.712;4.800;2023-10-09T03:10:06;13.50;1.00
21646;DHT22;10984;45.712;4.800;2023-10-09T03:12:35;13.50;1.00
21646;DHT22;10984;45.712;4.800;2023-10-09T03:15:01;13.40;1.00
21646;DHT22;10984;45.712;4.800;2023-10-09T03:17:28;13.30;1.00
21646;DHT22;10984;45.712;4.800;2023-10-09T03:19:53;13.30;1.00
21646;DHT22;10984;45.712;4.800;2023-10-09T03:22:20;13.30;1.00
21646;DHT22;10984;45.712;4.800;2023-10-09T03:24:45;13.30;1.00
21646;DHT22;10984;45.712;4.800;2023-10-09T03:27:12;13.40;1.00
21646;DHT22;10984;45.712;4.800;2023-10-09T03:29:39;13.40;1.00
21646;DHT22;10984;45.712;4.800;2023-10-09T03:32:07;13.40;1.00
21646;DHT22;10984;45.712;4.800;2023-10-09T03:34:34;13.40;1.00
21646;DHT22;10984;45.712;4.800;2023-10-09T03:37:00;13.30;1.00
21646;DHT22;10984;45.712;4.800;2023-10-09T03:39:44;13.40;1.00
21646;DHT22;10984;45.712;4.800;2023-10-09T03:42:28;13.40;1.00
21646;DHT22;10984;45.712;4.800;2023-10-09T03:44:55;13.30;1.00
21646;DHT22;10984;45.712;4.800;2023-10-09T03:47:23;13.30;1.00
21646;DHT22;10984;45.712;4.800;2023-10-09T03:49:50;13.30;1.00
21646;DHT22;10984;45.712;4.800;2023-10-09T03:52:33;13.30;1.00
21646;DHT22;10984;45.712;4.800;2023-10-09T03:55:00;13.30;1.00
21646;DHT22;10984;45.712;4.800;2023-10-09T03:57:26;13.20;1.00
21646;DHT22;10984;45.712;4.800;2023-10-09T03:59:51;13.20;1.00
21646;DHT22;10984;45.712;4.800;2023-10-09T04:02:17;13.30;1.00
21646;DHT22;10984;45.712;4.800;2023-10-09T04:04:43;13.30;1.00
21646;DHT22;10984;45.712;4.800;2023-10-09T04:07:27;13.20;1.00
21646;DHT22;10984;45.712;4.800;2023-10-09T04:09:54;13.20;1.00
21646;DHT22;10984;45.712;4.800;2023-10-09T04:12:39;13.20;1.00
21646;DHT22;10984;45.712;4.800;2023-10-09T04:15:05;13.20;1.00
21646;DHT22;10984;45.712;4.800;2023-10-09T04:17:32;13.20;1.00
21646;DHT22;10984;45.712;4.800;2023-10-09T04:19:58;13.20;1.00
21646;DHT22;10984;45.712;4.800;2023-10-09T04:22:43;13.20;1.00
21646;DHT22;10984;45.712;4.800;2023-10-09T04:25:34;13.10;1.00
21646;DHT22;10984;45.712;4.800;2023-10-09T04:28:18;13.10;1.00
21646;DHT22;10984;45.712;4.800;2023-10-09T04:30:45;13.10;1.00
21646;DHT22;10984;45.712;4.800;2023-10-09T04:33:29;13.10;1.00
21646;DHT22;10984;45.712;4.800;2023-10-09T04:38:59;13.20;1.00
21646;DHT22;10984;45.712;4.800;2023-10-09T04:41:43;13.10;1.00
21646;DHT22;10984;45.712;4.800;2023-10-09T04:44:09;13.10;1.00
21646;DHT22;10984;45.712;4.800;2023-10-09T04:46:53;13.00;1.00
21646;DHT22;10984;45.712;4.800;2023-10-09T04:49:38;13.00;1.00
21646;DHT22;10984;45.712;4.800;2023-10-09T04:52:22;13.00;1.00
21646;DHT22;10984;45.712;4.800;2023-10-09T04:55:08;12.90;1.00
21646;DHT22;10984;45.712;4.800;2023-10-09T04:57:52;12.90;1.00
21646;DHT22;10984;45.712;4.800;2023-10-09T05:00:36;12.90;1.00
21646;DHT22;10984;45.712;4.800;2023-10-09T05:03:22;12.90;1.00
21646;DHT22;10984;45.712;4.800;2023-10-09T05:06:07;12.90;1.00
21646;DHT22;10984;45.712;4.800;2023-10-09T05:08:51;12.90;1.00
21646;DHT22;10984;45.712;4.800;2023-10-09T05:11:22;12.90;1.00
21646;DHT22;10984;45.712;4.800;2023-10-09T05:14:06;12.90;1.00
21646;DHT22;10984;45.712;4.800;2023-10-09T05:16:50;12.90;1.00
21646;DHT22;10984;45.712;4.800;2023-10-09T05:19:34;12.90;1.00
21646;DHT22;10984;45.712;4.800;2023-10-09T05:22:18;12.90;1.00
21646;DHT22;10984;45.712;4.800;2023-10-09T05:25:02;12.90;1.00
21646;DHT22;10984;45.712;4.800;2023-10-09T05:27:39;12.90;1.00
21646;DHT22;10984;45.712;4.800;2023-10-09T05:30:23;12.90;1.00
21646;DHT22;10984;45.712;4.800;2023-10-09T05:33:08;12.90;1.00
21646;DHT22;10984;45.712;4.800;2023-10-09T05:35:53;12.90;1.00
21646;DHT22;10984;45.712;4.800;2023-10-09T05:38:37;13.00;1.00
21646;DHT22;10984;45.712;4.800;2023-10-09T05:41:12;12.90;1.00
21646;DHT22;10984;45.712;4.800;2023-10-09T05:43:56;12.90;1.00
21646;DHT22;10984;45.712;4.800;2023-10-09T05:46:40;12.80;1.00
21646;DHT22;10984;45.712;4.800;2023-10-09T05:49:26;12.80;1.00
21646;DHT22;10984;45.712;4.800;2023-10-09T05:52:14;12.80;1.00
21646;DHT22;10984;45.712;4.800;2023-10-09T05:54:59;12.70;1.00
21646;DHT22;10984;45.712;4.800;2023-10-09T05:57:43;12.70;1.00
21646;DHT22;10984;45.712;4.800;2023-10-09T06:00:27;12.70;1.00
21646;DHT22;10984;45.712;4.800;2023-10-09T06:03:11;12.70;1.00
21646;DHT22;10984;45.712;4.800;2023-10-09T06:05:56;12.80;1.00
21646;DHT22;10984;45.712;4.800;2023-10-09T06:08:23;12.80;1.00
21646;DHT22;10984;45.712;4.800;2023-10-09T06:11:12;12.90;1.00
21646;DHT22;10984;45.712;4.800;2023-10-09T06:13:58;12.90;1.00
21646;DHT22;10984;45.712;4.800;2023-10-09T06:16:42;13.00;1.00
21646;DHT22;10984;45.712;4.800;2023-10-09T06:22:12;13.00;1.00
21646;DHT22;10984;45.712;4.800;2023-10-09T06:24:57;13.10;1.00
21646;DHT22;10984;45.712;4.800;2023-10-09T06:27:25;13.20;1.00
21646;DHT22;10984;45.712;4.800;2023-10-09T06:30:09;13.20;1.00
21646;DHT22;10984;45.712;4.800;2023-10-09T06:32:53;13.30;1.00
21646;DHT22;10984;45.712;4.800;2023-10-09T06:35:37;13.40;1.00
21646;DHT22;10984;45.712;4.800;2023-10-09T06:38:05;13.40;1.00
21646;DHT22;10984;45.712;4.800;2023-10-09T06:40:50;13.60;1.00
21646;DHT22;10984;45.712;4.800;2023-10-09T06:43:34;13.60;1.00
21646;DHT22;10984;45.712;4.800;2023-10-09T06:46:18;13.70;1.00
21646;DHT22;10984;45.712;4.800;2023-10-09T06:49:03;13.80;1.00
21646;DHT22;10984;45.712;4.800;2023-10-09T06:51:48;13.90;1.00
21646;DHT22;10984;45.712;4.800;2023-10-09T06:54:21;14.00;1.00
21646;DHT22;10984;45.712;4.800;2023-10-09T06:56:51;14.10;1.00
21646;DHT22;10984;45.712;4.800;2023-10-09T06:59:35;14.10;1.00
21646;DHT22;10984;45.712;4.800;2023-10-09T07:02:19;14.20;1.00
21646;DHT22;10984;45.712;4.800;2023-10-09T07:04:53;14.30;1.00
21646;DHT22;10984;45.712;4.800;2023-10-09T07:07:20;14.40;1.00
21646;DHT22;10984;45.712;4.800;2023-10-09T07:09:47;14.50;1.00
21646;DHT22;10984;45.712;4.800;2023-10-09T07:12:50;14.50;1.00
21646;DHT22;10984;45.712;4.800;2023-10-09T07:15:20;14.60;1.00
21646;DHT22;10984;45.712;4.800;2023-10-09T07:18:04;14.80;1.00
21646;DHT22;10984;45.712;4.800;2023-10-09T07:20:44;14.80;1.00
21646;DHT22;10984;45.712;4.800;2023-10-09T07:23:24;14.90;1.00
21646;DHT22;10984;45.712;4.800;2023-10-09T07:26:02;15.10;1.00
21646;DHT22;10984;45.712;4.800;2023-10-09T07:28:43;15.20;1.00
21646;DHT22;10984;45.712;4.800;2023-10-09T07:31:16;15.30;1.00
21646;DHT22;10984;45.712;4.800;2023-10-09T07:33:50;15.40;1.00
21646;DHT22;10984;45.712;4.800;2023-10-09T07:36:31;15.40;1.00
21646;DHT22;10984;45.712;4.800;2023-10-09T07:39:16;15.50;1.00
21646;DHT22;10984;45.712;4.800;2023-10-09T07:41:42;15.50;1.00
21646;DHT22;10984;45.712;4.800;2023-10-09T07:44:27;15.60;1.00
21646;DHT22;10984;45.712;4.800;2023-10-09T07:47:11;15.60;1.00
21646;DHT22;10984;45.712;4.800;2023-10-09T07:49:55;15.80;1.00
21646;DHT22;10984;45.712;4.800;2023-10-09T07:52:24;15.90;1.00
21646;DHT22;10984;45.712;4.800;2023-10-09T07:54:51;15.90;1.00
21646;DHT22;10984;45.712;4.800;2023-10-09T07:57:20;16.00;1.00
21646;DHT22;10984;45.712;4.800;2023-10-09T07:59:51;16.10;1.00
21646;DHT22;10984;45.712;4.800;2023-10-09T08:02:36;16.20;1.00
21646;DHT22;10984;45.712;4.800;2023-10-09T08:05:02;16.20;1.00
21646;DHT22;10984;45.712;4.800;2023-10-09T08:07:47;16.30;1.00
21646;DHT22;10984;45.712;4.800;2023-10-09T08:10:22;16.40;1.00
21646;DHT22;10984;45.712;4.800;2023-10-09T08:12:48;16.50;1.00
21646;DHT22;10984;45.712;4.800;2023-10-09T08:15:32;16.60;1.00
21646;DHT22;10984;45.712;4.800;2023-10-09T08:18:16;16.60;1.00
21646;DHT22;10984;45.712;4.800;2023-10-09T08:21:02;16.70;1.00
21646;DHT22;10984;45.712;4.800;2023-10-09T08:23:28;16.80;1.00
21646;DHT22;10984;45.712;4.800;2023-10-09T08:26:12;16.90;1.00
21646;DHT22;10984;45.712;4.800;2023-10-09T08:28:39;17.00;1.00
21646;DHT22;10984;45.712;4.800;2023-10-09T08:31:09;17.10;1.00
21646;DHT22;10984;45.712;4.800;2023-10-09T08:33:44;17.20;1.00
21646;DHT22;10984;45.712;4.800;2023-10-09T08:36:10;17.30;1.00
21646;DHT22;10984;45.712;4.800;2023-10-09T08:38:40;17.40;1.00
21646;DHT22;10984;45.712;4.800;2023-10-09T08:43:56;17.50;1.00
21646;DHT22;10984;45.712;4.800;2023-10-09T08:49:08;17.60;1.00
21646;DHT22;10984;45.712;4.800;2023-10-09T08:51:36;17.70;1.00
21646;DHT22;10984;45.712;4.800;2023-10-09T08:54:03;17.80;1.00
21646;DHT22;10984;45.712;4.800;2023-10-09T08:56:30;17.90;1.00
21646;DHT22;10984;45.712;4.800;2023-10-09T08:58:58;17.90;1.00
21646;DHT22;10984;45.712;4.800;2023-10-09T09:01:25;18.00;1.00
21646;DHT22;10984;45.712;4.800;2023-10-09T09:03:51;18.10;1.00
21646;DHT22;10984;45.712;4.800;2023-10-09T09:06:22;18.30;1.00
21646;DHT22;10984;45.712;4.800;2023-10-09T09:08:50;18.40;1.00
21646;DHT22;10984;45.712;4.800;2023-10-09T09:11:20;18.40;1.00
21646;DHT22;10984;45.712;4.800;2023-10-09T09:14:05;18.60;1.00
21646;DHT22;10984;45.712;4.800;2023-10-09T09:16:35;18.60;1.00
21646;DHT22;10984;45.712;4.800;2023-10-09T09:19:20;18.70;1.00
21646;DHT22;10984;45.712;4.800;2023-10-09T09:21:58;18.80;1.00
21646;DHT22;10984;45.712;4.800;2023-10-09T09:24:37;18.80;1.00
21646;DHT22;10984;45.712;4.800;2023-10-09T09:27:04;19.00;1.00
21646;DHT22;10984;45.712;4.800;2023-10-09T09:29:48;19.10;1.00
21646;DHT22;10984;45.712;4.800;2023-10-09T09:32:32;19.20;1.00
21646;DHT22;10984;45.712;4.800;2023-10-09T09:35:16;19.20;1.00
21646;DHT22;10984;45.712;4.800;2023-10-09T09:37:52;19.30;1.00
21646;DHT22;10984;45.712;4.800;2023-10-09T09:40:20;19.40;1.00
21646;DHT22;10984;45.712;4.800;2023-10-09T09:43:04;19.40;1.00
21646;DHT22;10984;45.712;4.800;2023-10-09T09:45:39;19.50;1.00
21646;DHT22;10984;45.712;4.800;2023-10-09T09:48:13;19.50;1.00
21646;DHT22;10984;45.712;4.800;2023-10-09T09:50:41;19.60;1.00
21646;DHT22;10984;45.712;4.800;2023-10-09T09:53:26;19.70;1.00
21646;DHT22;10984;45.712;4.800;2023-10-09T09:55:53;19.80;1.00
21646;DHT22;10984;45.712;4.800;2023-10-09T09:58:39;19.80;1.00
21646;DHT22;10984;45.712;4.800;2023-10-09T10:01:29;20.00;1.00
21646;DHT22;10984;45.712;4.800;2023-10-09T10:04:16;20.00;1.00
21646;DHT22;10984;45.712;4.800;2023-10-09T10:06:46;20.10;1.00
21646;DHT22;10984;45.712;4.800;2023-10-09T10:16:10;20.40;1.00
21646;DHT22;10984;45.712;4.800;2023-10-09T10:18:55;20.50;99.90
21646;DHT22;10984;45.712;4.800;2023-10-09T10:21:26;20.50;99.90
21646;DHT22;10984;45.712;4.800;2023-10-09T10:27:16;20.70;99.90
21646;DHT22;10984;45.712;4.800;2023-10-09T10:33:08;20.80;99.90
21646;DHT22;10984;45.712;4.800;2023-10-09T10:35:52;20.80;99.90
21646;DHT22;10984;45.712;4.800;2023-10-09T10:38:36;20.90;99.90
21646;DHT22;10984;45.712;4.800;2023-10-09T10:41:26;21.00;99.90
21646;DHT22;10984;45.712;4.800;2023-10-09T10:43:56;21.10;99.90
21646;DHT22;10984;45.712;4.800;2023-10-09T10:46:24;21.20;99.90
21646;DHT22;10984;45.712;4.800;2023-10-09T10:49:06;21.30;99.90
21646;DHT22;10984;45.712;4.800;2023-10-09T10:51:51;21.30;99.90
21646;DHT22;10984;45.712;4.800;2023-10-09T10:54:35;21.40;99.90
21646;DHT22;10984;45.712;4.800;2023-10-09T10:57:00;21.50;99.90
21646;DHT22;10984;45.712;4.800;2023-10-09T10:59:45;21.60;99.90
21646;DHT22;10984;45.712;4.800;2023-10-09T11:02:11;21.70;99.90
21646;DHT22;10984;45.712;4.800;2023-10-09T11:04:38;21.80;99.90
21646;DHT22;10984;45.712;4.800;2023-10-09T11:07:22;21.80;99.90
21646;DHT22;10984;45.712;4.800;2023-10-09T11:10:06;21.90;99.90
21646;DHT22;10984;45.712;4.800;2023-10-09T11:15:14;22.00;99.90
21646;DHT22;10984;45.712;4.800;2023-10-09T11:18:17;22.10;99.90
21646;DHT22;10984;45.712;4.800;2023-10-09T11:21:01;22.20;99.90
21646;DHT22;10984;45.712;4.800;2023-10-09T11:23:45;22.30;99.90
21646;DHT22;10984;45.712;4.800;2023-10-09T11:26:30;22.20;99.90
21646;DHT22;10984;45.712;4.800;2023-10-09T11:29:24;22.30;99.90
21646;DHT22;10984;45.712;4.800;2023-10-09T11:32:14;22.40;99.90
21646;DHT22;10984;45.712;4.800;2023-10-09T11:37:32;22.50;99.90
21646;DHT22;10984;45.712;4.800;2023-10-09T11:40:05;22.60;99.90
21646;DHT22;10984;45.712;4.800;2023-10-09T11:42:49;22.60;99.90
21646;DHT22;10984;45.712;4.800;2023-10-09T11:45:34;22.70;99.90
21646;DHT22;10984;45.712;4.800;2023-10-09T11:48:22;22.80;99.90
21646;DHT22;10984;45.712;4.800;2023-10-09T11:50:53;22.80;99.90
21646;DHT22;10984;45.712;4.800;2023-10-09T11:53:57;22.90;99.90
21646;DHT22;10984;45.712;4.800;2023-10-09T11:56:24;22.90;99.90
21646;DHT22;10984;45.712;4.800;2023-10-09T11:58:52;23.00;99.90
21646;DHT22;10984;45.712;4.800;2023-10-09T12:01:19;23.10;99.90
21646;DHT22;10984;45.712;4.800;2023-10-09T12:04:03;23.20;99.90
21646;DHT22;10984;45.712;4.800;2023-10-09T12:06:28;23.20;99.90
21646;DHT22;10984;45.712;4.800;2023-10-09T12:08:57;23.40;99.90
21646;DHT22;10984;45.712;4.800;2023-10-09T12:11:24;23.50;99.90
21646;DHT22;10984;45.712;4.800;2023-10-09T12:13:58;23.50;99.90
21646;DHT22;10984;45.712;4.800;2023-10-09T12:16:26;23.60;99.90
21646;DHT22;10984;45.712;4.800;2023-10-09T12:19:11;23.60;99.90
21646;DHT22;10984;45.712;4.800;2023-10-09T12:21:37;23.60;99.90
21646;DHT22;10984;45.712;4.800;2023-10-09T12:24:08;23.60;99.90
21646;DHT22;10984;45.712;4.800;2023-10-09T12:26:37;23.60;99.90
21646;DHT22;10984;45.712;4.800;2023-10-09T12:29:05;23.60;96.30
21646;DHT22;10984;45.712;4.800;2023-10-09T12:31:36;23.50;99.90
21646;DHT22;10984;45.712;4.800;2023-10-09T12:34:02;23.60;63.90
21646;DHT22;10984;45.712;4.800;2023-10-09T12:36:28;23.60;35.10
21646;DHT22;10984;45.712;4.800;2023-10-09T12:38:54;23.60;68.70
21646;DHT22;10984;45.712;4.800;2023-10-09T12:41:24;23.80;24.40
21646;DHT22;10984;45.712;4.800;2023-10-09T12:44:08;23.90;17.10
21646;DHT22;10984;45.712;4.800;2023-10-09T12:46:40;24.00;27.90
21646;DHT22;10984;45.712;4.800;2023-10-09T12:49:06;24.00;1.30
21646;DHT22;10984;45.712;4.800;2023-10-09T12:51:32;23.90;1.00
21646;DHT22;10984;45.712;4.800;2023-10-09T12:53:58;23.80;1.00
21646;DHT22;10984;45.712;4.800;2023-10-09T12:56:24;23.90;1.00
21646;DHT22;10984;45.712;4.800;2023-10-09T12:59:01;24.10;1.00
21646;DHT22;10984;45.712;4.800;2023-10-09T13:01:27;24.30;1.00
21646;DHT22;10984;45.712;4.800;2023-10-09T13:04:30;24.40;1.00
21646;DHT22;10984;45.712;4.800;2023-10-09T13:06:58;24.50;1.00
21646;DHT22;10984;45.712;4.800;2023-10-09T13:09:28;24.60;1.00
21646;DHT22;10984;45.712;4.800;2023-10-09T13:12:13;24.60;1.00
21646;DHT22;10984;45.712;4.800;2023-10-09T13:14:43;24.70;1.00
21646;DHT22;10984;45.712;4.800;2023-10-09T13:17:10;24.70;1.00
21646;DHT22;10984;45.712;4.800;2023-10-09T13:19:36;24.70;1.00
21646;DHT22;10984;45.712;4.800;2023-10-09T13:22:02;24.80;1.00
21646;DHT22;10984;45.712;4.800;2023-10-09T13:24:29;24.90;1.00
21646;DHT22;10984;45.712;4.800;2023-10-09T13:26:56;25.00;1.00
21646;DHT22;10984;45.712;4.800;2023-10-09T13:29:24;24.90;1.00
21646;DHT22;10984;45.712;4.800;2023-10-09T13:31:50;24.90;1.00
21646;DHT22;10984;45.712;4.800;2023-10-09T13:34:18;24.90;1.00
21646;DHT22;10984;45.712;4.800;2023-10-09T13:36:44;24.80;1.00
21646;DHT22;10984;45.712;4.800;2023-10-09T13:39:28;24.80;1.00
21646;DHT22;10984;45.712;4.800;2023-10-09T13:41:57;25.00;1.00
21646;DHT22;10984;45.712;4.800;2023-10-09T13:49:45;24.80;1.00
21646;DHT22;10984;45.712;4.800;2023-10-09T13:52:10;24.80;1.00
21646;DHT22;10984;45.712;4.800;2023-10-09T13:54:43;24.80;1.00
21646;DHT22;10984;45.712;4.800;2023-10-09T13:57:13;24.70;1.00
21646;DHT22;10984;45.712;4.800;2023-10-09T13:59:41;24.70;1.00
21646;DHT22;10984;45.712;4.800;2023-10-09T14:02:25;24.70;1.00
21646;DHT22;10984;45.712;4.800;2023-10-09T14:04:53;24.60;1.00
21646;DHT22;10984;45.712;4.800;2023-10-09T14:07:22;24.60;1.00
21646;DHT22;10984;45.712;4.800;2023-10-09T14:09:48;24.70;1.00
21646;DHT22;10984;45.712;4.800;2023-10-09T14:12:32;24.90;1.00
21646;DHT22;10984;45.712;4.800;2023-10-09T14:15:00;24.90;1.00
21646;DHT22;10984;45.712;4.800;2023-10-09T14:17:28;24.90;1.00
21646;DHT22;10984;45.712;4.800;2023-10-09T14:19:55;24.90;1.00
21646;DHT22;10984;45.712;4.800;2023-10-09T14:22:26;24.90;1.00
21646;DHT22;10984;45.712;4.800;2023-10-09T14:24:53;24.90;1.00
21646;DHT22;10984;45.712;4.800;2023-10-09T14:27:37;24.90;1.00
21646;DHT22;10984;45.712;4.800;2023-10-09T14:30:03;24.90;1.00
21646;DHT22;10984;45.712;4.800;2023-10-09T14:32:38;24.90;1.00
21646;DHT22;10984;45.712;4.800;2023-10-09T14:35:10;24.80;1.00
21646;DHT22;10984;45.712;4.800;2023-10-09T14:37:55;24.70;1.00
21646;DHT22;10984;45.712;4.800;2023-10-09T14:40:21;24.70;1.00
21646;DHT22;10984;45.712;4.800;2023-10-09T14:42:55;24.70;1.00
21646;DHT22;10984;45.712;4.800;2023-10-09T14:45:24;24.60;1.00
21646;DHT22;10984;45.712;4.800;2023-10-09T14:47:52;24.60;1.00
21646;DHT22;10984;45.712;4.800;2023-10-09T14:50:22;24.60;1.00
21646;DHT22;10984;45.712;4.800;2023-10-09T14:52:51;24.60;1.00
21646;DHT22;10984;45.712;4.800;2023-10-09T14:55:17;24.60;1.00
21646;DHT22;10984;45.712;4.800;2023-10-09T14:58:01;24.50;1.00
21646;DHT22;10984;45.712;4.800;2023-10-09T15:00:27;24.50;1.00
21646;DHT22;10984;45.712;4.800;2023-10-09T15:02:52;24.40;1.00
21646;DHT22;10984;45.712;4.800;2023-10-09T15:05:18;24.40;1.00
21646;DHT22;10984;45.712;4.800;2023-10-09T15:07:44;24.40;1.00
21646;DHT22;10984;45.712;4.800;2023-10-09T15:10:11;24.40;1.00
21646;DHT22;10984;45.712;4.800;2023-10-09T15:12:41;24.40;1.00
21646;DHT22;10984;45.712;4.800;2023-10-09T15:15:09;24.30;1.00
21646;DHT22;10984;45.712;4.800;2023-10-09T15:17:53;24.30;1.00
21646;DHT22;10984;45.712;4.800;2023-10-09T15:20:19;24.30;1.00
21646;DHT22;10984;45.712;4.800;2023-10-09T15:22:46;24.30;1.00
21646;DHT22;10984;45.712;4.800;2023-10-09T15:25:12;24.20;1.00
21646;DHT22;10984;45.712;4.800;2023-10-09T15:27:56;24.20;1.00
21646;DHT22;10984;45.712;4.800;2023-10-09T15:30:22;24.10;1.00
21646;DHT22;10984;45.712;4.800;2023-10-09T15:32:48;24.10;1.00
21646;DHT22;10984;45.712;4.800;2023-10-09T15:35:14;24.00;1.00
21646;DHT22;10984;45.712;4.800;2023-10-09T15:37:41;23.90;1.00
21646;DHT22;10984;45.712;4.800;2023-10-09T15:40:07;23.90;1.00
21646;DHT22;10984;45.712;4.800;2023-10-09T15:42:40;23.80;1.00
21646;DHT22;10984;45.712;4.800;2023-10-09T15:45:06;23.80;1.00
21646;DHT22;10984;45.712;4.800;2023-10-09T15:47:32;23.70;1.00
21646;DHT22;10984;45.712;4.800;2023-10-09T15:50:02;23.60;1.00
21646;DHT22;10984;45.712;4.800;2023-10-09T15:52:29;23.60;1.00
21646;DHT22;10984;45.712;4.800;2023-10-09T15:54:55;23.50;1.00
21646;DHT22;10984;45.712;4.800;2023-10-09T15:57:21;23.50;1.00
21646;DHT22;10984;45.712;4.800;2023-10-09T15:59:47;23.40;1.00
21646;DHT22;10984;45.712;4.800;2023-10-09T16:02:15;23.40;1.00
21646;DHT22;10984;45.712;4.800;2023-10-09T16:04:42;23.30;1.00
21646;DHT22;10984;45.712;4.800;2023-10-09T16:07:08;23.20;1.00
21646;DHT22;10984;45.712;4.800;2023-10-09T16:09:35;23.10;1.00
21646;DHT22;10984;45.712;4.800;2023-10-09T16:12:05;23.10;1.00
21646;DHT22;10984;45.712;4.800;2023-10-09T16:14:31;23.10;1.00
21646;DHT22;10984;45.712;4.800;2023-10-09T16:16:57;23.00;1.00
21646;DHT22;10984;45.712;4.800;2023-10-09T16:19:23;22.90;1.00
21646;DHT22;10984;45.712;4.800;2023-10-09T16:21:49;22.80;1.00
21646;DHT22;10984;45.712;4.800;2023-10-09T16:24:17;22.80;1.00
21646;DHT22;10984;45.712;4.800;2023-10-09T16:26:45;22.70;1.00
21646;DHT22;10984;45.712;4.800;2023-10-09T16:29:16;22.70;1.00
21646;DHT22;10984;45.712;4.800;2023-10-09T16:31:42;22.60;1.00
21646;DHT22;10984;45.712;4.800;2023-10-09T16:34:08;22.50;1.00
21646;DHT22;10984;45.712;4.800;2023-10-09T16:36:34;22.40;1.00
21646;DHT22;10984;45.712;4.800;2023-10-09T16:39:00;22.40;1.00
21646;DHT22;10984;45.712;4.800;2023-10-09T16:41:27;22.40;1.00
21646;DHT22;10984;45.712;4.800;2023-10-09T16:43:53;22.30;1.00
21646;DHT22;10984;45.712;4.800;2023-10-09T16:46:20;22.20;1.00
21646;DHT22;10984;45.712;4.800;2023-10-09T16:49:04;22.10;1.00
21646;DHT22;10984;45.712;4.800;2023-10-09T16:51:30;22.00;1.00
21646;DHT22;10984;45.712;4.800;2023-10-09T16:53:56;22.00;1.00
21646;DHT22;10984;45.712;4.800;2023-10-09T16:56:22;21.90;1.00
21646;DHT22;10984;45.712;4.800;2023-10-09T16:58:50;21.80;1.00
21646;DHT22;10984;45.712;4.800;2023-10-09T17:01:18;21.70;1.00
21646;DHT22;10984;45.712;4.800;2023-10-09T17:04:03;21.60;1.00
21646;DHT22;10984;45.712;4.800;2023-10-09T17:06:28;21.50;1.00
21646;DHT22;10984;45.712;4.800;2023-10-09T17:08:56;21.40;1.00
21646;DHT22;10984;45.712;4.800;2023-10-09T17:11:22;21.30;1.00
21646;DHT22;10984;45.712;4.800;2023-10-09T17:13:49;21.20;1.00